PWSweather.com
Personal Weather Stations
Station Observations
LONGSUTTON
Long SuttonGB

Long SuttonGB

Lat: 52.776537, Lon: 0.113883

Elevation: 30

Station Type: Davis Vantage Pro 2

http://www.wx-watch.co.uk

Latest ConditionsUpdated 5:27:21 AM GMT Monday, Jan 20, 2020
Currently Today's Max Today's Min Today's Average
Temperature 34.1°F1.2°C 35.2°F1.8°C 33.1°F0.6°C 34.2°F1.2°C
Dew Point 27.3°F-2.6°C 28.2°F-2.1°C 26.4°F-3.1°C 27.5°F-2.5°C
Winds 3.0 mph SW4.8 kmh SW 3.0 mph -4.8 kmh - - 1.7 mph 2.7 kmh
Wind Gusts 4.0 mph6.4 kmh 5.0 mph8.0 kmh - -
Humidity 76% 77% 75% 76%
Pressure 30.98 in1049.1 mb 31.02 in1050.5 mb 30.97 in1048.8 mb -
Hour Temp Dew Point Humidity Winds Wind Gusts Pressure Precip Precip Rate Daily Precip Total
05:27 AM 34.1°F1.2°C 27.3°F-2.6°C 76% 3.0 mph SW4.8 kmh SW 4.0 mph6.4 kmh 30.98 in1049.1 mb 0.00 in0.0 mm 0.00 in0.0 mm 0.00 in0.0 mm
05:22 AM 34.2°F1.2°C 27.4°F-2.6°C 76% 2.0 mph SW3.2 kmh SW 4.0 mph6.4 kmh 30.98 in1049.1 mb 0.00 in0.0 mm 0.00 in0.0 mm 0.00 in0.0 mm
05:17 AM 34.4°F1.3°C 27.6°F-2.4°C 76% 1.0 mph SW1.6 kmh SW 4.0 mph6.4 kmh 30.98 in1049.1 mb 0.00 in0.0 mm 0.00 in0.0 mm 0.00 in0.0 mm
05:12 AM 34.4°F1.3°C 27.6°F-2.4°C 76% 3.0 mph SW4.8 kmh SW 4.0 mph6.4 kmh 30.98 in1049.1 mb 0.00 in0.0 mm 0.00 in0.0 mm 0.00 in0.0 mm
05:07 AM 34.4°F1.3°C 27.6°F-2.4°C 76% 3.0 mph SW4.8 kmh SW 4.0 mph6.4 kmh 30.98 in1049.1 mb 0.00 in0.0 mm 0.00 in0.0 mm 0.00 in0.0 mm
05:02 AM 34.5°F1.4°C 27.7°F-2.4°C 76% Calm Calm 3.0 mph4.8 kmh 30.98 in1049.1 mb 0.00 in0.0 mm 0.00 in0.0 mm 0.00 in0.0 mm
04:57 AM 34.6°F1.4°C 27.8°F-2.3°C 76% 2.0 mph SW3.2 kmh SW 4.0 mph6.4 kmh 30.98 in1049.1 mb 0.00 in0.0 mm 0.00 in0.0 mm 0.00 in0.0 mm
04:52 AM 34.6°F1.4°C 27.8°F-2.3°C 76% 1.0 mph SW1.6 kmh SW 4.0 mph6.4 kmh 30.97 in1048.8 mb 0.00 in0.0 mm 0.00 in0.0 mm 0.00 in0.0 mm
04:47 AM 34.7°F1.5°C 27.9°F-2.3°C 76% 2.0 mph SW3.2 kmh SW 5.0 mph8.0 kmh 30.98 in1049.1 mb 0.00 in0.0 mm 0.00 in0.0 mm 0.00 in0.0 mm
04:42 AM 34.7°F1.5°C 27.9°F-2.3°C 76% 2.0 mph SW3.2 kmh SW 5.0 mph8.0 kmh 30.98 in1049.1 mb 0.00 in0.0 mm 0.00 in0.0 mm 0.00 in0.0 mm
04:37 AM 34.8°F1.6°C 28.0°F-2.2°C 76% 2.0 mph SW3.2 kmh SW 5.0 mph8.0 kmh 30.97 in1048.8 mb 0.00 in0.0 mm 0.00 in0.0 mm 0.00 in0.0 mm
04:32 AM 34.8°F1.6°C 28.0°F-2.2°C 76% 2.0 mph SW3.2 kmh SW 5.0 mph8.0 kmh 30.98 in1049.1 mb 0.00 in0.0 mm 0.00 in0.0 mm 0.00 in0.0 mm
04:27 AM 34.8°F1.6°C 28.0°F-2.2°C 76% 2.0 mph SW3.2 kmh SW 4.0 mph6.4 kmh 30.98 in1049.1 mb 0.00 in0.0 mm 0.00 in0.0 mm 0.00 in0.0 mm
04:22 AM 34.8°F1.6°C 28.0°F-2.2°C 76% 2.0 mph SW3.2 kmh SW 4.0 mph6.4 kmh 30.98 in1049.1 mb 0.00 in0.0 mm 0.00 in0.0 mm 0.00 in0.0 mm
04:17 AM 34.8°F1.6°C 28.0°F-2.2°C 76% 2.0 mph SW3.2 kmh SW 4.0 mph6.4 kmh 30.98 in1049.1 mb 0.00 in0.0 mm 0.00 in0.0 mm 0.00 in0.0 mm
04:12 AM 34.7°F1.5°C 28.2°F-2.1°C 77% 1.0 mph SW1.6 kmh SW 4.0 mph6.4 kmh 30.98 in1049.1 mb 0.00 in0.0 mm 0.00 in0.0 mm 0.00 in0.0 mm
04:07 AM 34.6°F1.4°C 28.1°F-2.2°C 77% 1.0 mph SW1.6 kmh SW 5.0 mph8.0 kmh 30.99 in1049.4 mb 0.00 in0.0 mm 0.00 in0.0 mm 0.00 in0.0 mm
04:02 AM 34.5°F1.4°C 28.0°F-2.2°C 77% 2.0 mph SW3.2 kmh SW 5.0 mph8.0 kmh 30.98 in1049.1 mb 0.00 in0.0 mm 0.00 in0.0 mm 0.00 in0.0 mm
03:57 AM 34.4°F1.3°C 27.9°F-2.3°C 77% 1.0 mph SW1.6 kmh SW 5.0 mph8.0 kmh 30.99 in1049.4 mb 0.00 in0.0 mm 0.00 in0.0 mm 0.00 in0.0 mm
03:52 AM 34.2°F1.2°C 27.8°F-2.3°C 77% 1.0 mph SW1.6 kmh SW 5.0 mph8.0 kmh 30.99 in1049.4 mb 0.00 in0.0 mm 0.00 in0.0 mm 0.00 in0.0 mm
03:47 AM 34.1°F1.2°C 27.7°F-2.4°C 77% 1.0 mph SW1.6 kmh SW 5.0 mph8.0 kmh 30.98 in1049.1 mb 0.00 in0.0 mm 0.00 in0.0 mm 0.00 in0.0 mm
03:42 AM 33.9°F1.1°C 27.5°F-2.5°C 77% 3.0 mph SW4.8 kmh SW 5.0 mph8.0 kmh 30.99 in1049.4 mb 0.00 in0.0 mm 0.00 in0.0 mm 0.00 in0.0 mm
03:37 AM 33.8°F1.0°C 27.4°F-2.6°C 77% 3.0 mph SW4.8 kmh SW 4.0 mph6.4 kmh 30.99 in1049.4 mb 0.00 in0.0 mm 0.00 in0.0 mm 0.00 in0.0 mm
03:32 AM 33.8°F1.0°C 27.4°F-2.6°C 77% 1.0 mph SW1.6 kmh SW 4.0 mph6.4 kmh 30.99 in1049.4 mb 0.00 in0.0 mm 0.00 in0.0 mm 0.00 in0.0 mm
03:27 AM 33.8°F1.0°C 27.4°F-2.6°C 77% Calm Calm 4.0 mph6.4 kmh 30.99 in1049.4 mb 0.00 in0.0 mm 0.00 in0.0 mm 0.00 in0.0 mm
03:22 AM 33.8°F1.0°C 27.4°F-2.6°C 77% 2.0 mph SW3.2 kmh SW 4.0 mph6.4 kmh 30.99 in1049.4 mb 0.00 in0.0 mm 0.00 in0.0 mm 0.00 in0.0 mm
03:17 AM 33.7°F0.9°C 27.3°F-2.6°C 77% 1.0 mph SW1.6 kmh SW 3.0 mph4.8 kmh 30.99 in1049.4 mb 0.00 in0.0 mm 0.00 in0.0 mm 0.00 in0.0 mm
03:12 AM 33.6°F0.9°C 27.2°F-2.7°C 77% 2.0 mph SW3.2 kmh SW 3.0 mph4.8 kmh 31.00 in1049.8 mb 0.00 in0.0 mm 0.00 in0.0 mm 0.00 in0.0 mm
03:07 AM 33.6°F0.9°C 27.2°F-2.7°C 77% Calm Calm 4.0 mph6.4 kmh 31.00 in1049.8 mb 0.00 in0.0 mm 0.00 in0.0 mm 0.00 in0.0 mm
03:02 AM 33.6°F0.9°C 27.2°F-2.7°C 77% 1.0 mph SW1.6 kmh SW 4.0 mph6.4 kmh 30.99 in1049.4 mb 0.00 in0.0 mm 0.00 in0.0 mm 0.00 in0.0 mm
02:57 AM 33.6°F0.9°C 27.2°F-2.7°C 77% 2.0 mph SW3.2 kmh SW 4.0 mph6.4 kmh 31.00 in1049.8 mb 0.00 in0.0 mm 0.00 in0.0 mm 0.00 in0.0 mm
02:52 AM 33.5°F0.8°C 27.1°F-2.7°C 77% 2.0 mph SW3.2 kmh SW 4.0 mph6.4 kmh 30.99 in1049.4 mb 0.00 in0.0 mm 0.00 in0.0 mm 0.00 in0.0 mm
02:47 AM 33.6°F0.9°C 27.2°F-2.7°C 77% 1.0 mph SW1.6 kmh SW 3.0 mph4.8 kmh 31.00 in1049.8 mb 0.00 in0.0 mm 0.00 in0.0 mm 0.00 in0.0 mm
02:42 AM 33.7°F0.9°C 27.3°F-2.6°C 77% 2.0 mph SW3.2 kmh SW 3.0 mph4.8 kmh 31.00 in1049.8 mb 0.00 in0.0 mm 0.00 in0.0 mm 0.00 in0.0 mm
02:37 AM 33.6°F0.9°C 27.2°F-2.7°C 77% 1.0 mph SW1.6 kmh SW 3.0 mph4.8 kmh 31.00 in1049.8 mb 0.00 in0.0 mm 0.00 in0.0 mm 0.00 in0.0 mm
02:32 AM 33.5°F0.8°C 27.1°F-2.7°C 77% 2.0 mph SW3.2 kmh SW 3.0 mph4.8 kmh 31.00 in1049.8 mb 0.00 in0.0 mm 0.00 in0.0 mm 0.00 in0.0 mm
02:27 AM 33.2°F0.7°C 26.8°F-2.9°C 77% 2.0 mph S3.2 kmh S 3.0 mph4.8 kmh 31.01 in1050.1 mb 0.00 in0.0 mm 0.00 in0.0 mm 0.00 in0.0 mm
02:22 AM 33.1°F0.6°C 26.7°F-2.9°C 77% 2.0 mph S3.2 kmh S 3.0 mph4.8 kmh 31.00 in1049.8 mb 0.00 in0.0 mm 0.00 in0.0 mm 0.00 in0.0 mm
02:17 AM 33.1°F0.6°C 26.4°F-3.1°C 76% Calm Calm 2.0 mph3.2 kmh 31.01 in1050.1 mb 0.00 in0.0 mm 0.00 in0.0 mm 0.00 in0.0 mm
02:12 AM 33.2°F0.7°C 26.5°F-3.1°C 76% Calm Calm 4.0 mph6.4 kmh 31.02 in1050.5 mb 0.00 in0.0 mm 0.00 in0.0 mm 0.00 in0.0 mm
02:07 AM 33.3°F0.7°C 26.6°F-3.0°C 76% Calm Calm 4.0 mph6.4 kmh 31.01 in1050.1 mb 0.00 in0.0 mm 0.00 in0.0 mm 0.00 in0.0 mm
02:02 AM 33.5°F0.8°C 26.8°F-2.9°C 76% 1.0 mph S1.6 kmh S 4.0 mph6.4 kmh 31.01 in1050.1 mb 0.00 in0.0 mm 0.00 in0.0 mm 0.00 in0.0 mm
01:57 AM 33.5°F0.8°C 26.8°F-2.9°C 76% 2.0 mph S3.2 kmh S 4.0 mph6.4 kmh 31.02 in1050.5 mb 0.00 in0.0 mm 0.00 in0.0 mm 0.00 in0.0 mm
01:52 AM 33.7°F0.9°C 27.0°F-2.8°C 76% 2.0 mph S3.2 kmh S 4.0 mph6.4 kmh 31.01 in1050.1 mb 0.00 in0.0 mm 0.00 in0.0 mm 0.00 in0.0 mm
01:47 AM 33.8°F1.0°C 27.1°F-2.7°C 76% 1.0 mph S1.6 kmh S 4.0 mph6.4 kmh 31.02 in1050.5 mb 0.00 in0.0 mm 0.00 in0.0 mm 0.00 in0.0 mm
01:42 AM 33.9°F1.1°C 27.1°F-2.7°C 76% 2.0 mph S3.2 kmh S 4.0 mph6.4 kmh 31.02 in1050.5 mb 0.00 in0.0 mm 0.00 in0.0 mm 0.00 in0.0 mm
01:37 AM 33.9°F1.1°C 27.1°F-2.7°C 76% 2.0 mph S3.2 kmh S 4.0 mph6.4 kmh 31.01 in1050.1 mb 0.00 in0.0 mm 0.00 in0.0 mm 0.00 in0.0 mm
01:32 AM 34.0°F1.1°C 27.2°F-2.7°C 76% 3.0 mph S4.8 kmh S 3.0 mph4.8 kmh 31.01 in1050.1 mb 0.00 in0.0 mm 0.00 in0.0 mm 0.00 in0.0 mm
01:27 AM 34.1°F1.2°C 27.0°F-2.8°C 75% 2.0 mph S3.2 kmh S 3.0 mph4.8 kmh 31.01 in1050.1 mb 0.00 in0.0 mm 0.00 in0.0 mm 0.00 in0.0 mm
01:22 AM 34.3°F1.3°C 27.2°F-2.7°C 75% 2.0 mph S3.2 kmh S 3.0 mph4.8 kmh 31.01 in1050.1 mb 0.00 in0.0 mm 0.00 in0.0 mm 0.00 in0.0 mm
01:17 AM 34.4°F1.3°C 27.3°F-2.6°C 75% 3.0 mph S4.8 kmh S 4.0 mph6.4 kmh 31.01 in1050.1 mb 0.00 in0.0 mm 0.00 in0.0 mm 0.00 in0.0 mm
01:12 AM 34.5°F1.4°C 27.4°F-2.6°C 75% 1.0 mph S1.6 kmh S 4.0 mph6.4 kmh 31.01 in1050.1 mb 0.00 in0.0 mm 0.00 in0.0 mm 0.00 in0.0 mm
01:07 AM 34.6°F1.4°C 27.5°F-2.5°C 75% 2.0 mph S3.2 kmh S 4.0 mph6.4 kmh 31.01 in1050.1 mb 0.00 in0.0 mm 0.00 in0.0 mm 0.00 in0.0 mm
01:02 AM 34.6°F1.4°C 27.5°F-2.5°C 75% 1.0 mph S1.6 kmh S 4.0 mph6.4 kmh 31.01 in1050.1 mb 0.00 in0.0 mm 0.00 in0.0 mm 0.00 in0.0 mm
12:57 AM 34.7°F1.5°C 27.6°F-2.4°C 75% 3.0 mph S4.8 kmh S 4.0 mph6.4 kmh 31.01 in1050.1 mb 0.00 in0.0 mm 0.00 in0.0 mm 0.00 in0.0 mm
12:52 AM 34.8°F1.6°C 27.7°F-2.4°C 75% 2.0 mph S3.2 kmh S 4.0 mph6.4 kmh 31.01 in1050.1 mb 0.00 in0.0 mm 0.00 in0.0 mm 0.00 in0.0 mm
12:47 AM 34.9°F1.6°C 27.8°F-2.3°C 75% 2.0 mph S3.2 kmh S 5.0 mph8.0 kmh 31.01 in1050.1 mb 0.00 in0.0 mm 0.00 in0.0 mm 0.00 in0.0 mm
12:42 AM 34.9°F1.6°C 27.8°F-2.3°C 75% 3.0 mph S4.8 kmh S 5.0 mph8.0 kmh 31.01 in1050.1 mb 0.00 in0.0 mm 0.00 in0.0 mm 0.00 in0.0 mm
12:37 AM 35.0°F1.7°C 27.9°F-2.3°C 75% 1.0 mph S1.6 kmh S 5.0 mph8.0 kmh 31.01 in1050.1 mb 0.00 in0.0 mm 0.00 in0.0 mm 0.00 in0.0 mm
12:32 AM 35.0°F1.7°C 27.9°F-2.3°C 75% 2.0 mph S3.2 kmh S 5.0 mph8.0 kmh 31.01 in1050.1 mb 0.00 in0.0 mm 0.00 in0.0 mm 0.00 in0.0 mm
12:27 AM 35.0°F1.7°C 27.9°F-2.3°C 75% 1.0 mph S1.6 kmh S 3.0 mph4.8 kmh 31.01 in1050.1 mb 0.00 in0.0 mm 0.00 in0.0 mm 0.00 in0.0 mm
12:22 AM 35.2°F1.8°C 28.1°F-2.2°C 75% 2.0 mph S3.2 kmh S 4.0 mph6.4 kmh 31.00 in1049.8 mb 0.00 in0.0 mm 0.00 in0.0 mm 0.00 in0.0 mm
12:17 AM 35.2°F1.8°C 28.1°F-2.2°C 75% 3.0 mph S4.8 kmh S 4.0 mph6.4 kmh 31.00 in1049.8 mb 0.00 in0.0 mm 0.00 in0.0 mm 0.00 in0.0 mm
12:12 AM 35.2°F1.8°C 28.1°F-2.2°C 75% 1.0 mph WSW1.6 kmh WSW 4.0 mph6.4 kmh 31.00 in1049.8 mb 0.00 in0.0 mm 0.00 in0.0 mm 0.00 in0.0 mm
12:07 AM 35.2°F1.8°C 28.1°F-2.2°C 75% 2.0 mph WSW3.2 kmh WSW 4.0 mph6.4 kmh 31.00 in1049.8 mb 0.00 in0.0 mm 0.00 in0.0 mm 0.00 in0.0 mm
12:02 AM 35.2°F1.8°C 28.1°F-2.2°C 75% 2.0 mph WSW3.2 kmh WSW 3.0 mph4.8 kmh 31.00 in1049.8 mb 0.00 in0.0 mm 0.00 in0.0 mm 0.00 in0.0 mm